Time;durP1;ratioP1;P1;durP2;ratioP2;P2;SDS_P1;SDS_P2;PMS_P1;PMS_P2;Temp;Humidity;BMP_temperature;BMP_pressure;BME280_temperature;BME280_humidity;BME280_pressure;Samples;Min_cycle;Max_cycle;Signal;HPM_P1;HPM_P2
2022/05/23 00:00:09;;;;;;;4.20;1.85;;;14.90;99.90;;;;;;5002776;28;20124;-79
2022/05/23 00:02:35;;;;;;;5.15;2.00;;;14.90;99.90;;;;;;5002476;28;20049;-79
2022/05/23 00:05:01;;;;;;;1.42;1.33;;;14.80;99.90;;;;;;5003054;28;20046;-79
2022/05/23 00:07:32;;;;;;;1.92;1.13;;;14.80;99.90;;;;;;5003205;28;20048;-79
2022/05/23 00:09:59;;;;;;;1.97;1.77;;;14.80;99.90;;;;;;5002606;28;20054;-79
2022/05/23 00:12:25;;;;;;;3.15;1.38;;;14.70;99.90;;;;;;5002592;28;20104;-79
2022/05/23 00:14:51;;;;;;;1.58;1.48;;;14.70;99.90;;;;;;5001705;28;20137;-79
2022/05/23 00:17:19;;;;;;;1.67;1.58;;;14.70;99.90;;;;;;5002809;28;20053;-79
2022/05/23 00:19:45;;;;;;;2.13;1.38;;;14.70;99.90;;;;;;5001855;28;20091;-79
2022/05/23 00:22:10;;;;;;;2.10;1.67;;;14.70;99.90;;;;;;5002945;28;20136;-79
2022/05/23 00:24:36;;;;;;;2.85;1.58;;;14.70;99.90;;;;;;5002755;28;20049;-79
2022/05/23 00:27:05;;;;;;;2.13;1.08;;;14.60;99.90;;;;;;5006740;28;20540;-79
2022/05/23 00:29:31;;;;;;;2.60;1.83;;;14.60;99.90;;;;;;5007037;28;20038;-79
2022/05/23 00:37:27;;;;;;;2.05;1.80;;;14.60;99.90;;;;;;5006537;28;20050;-79
2022/05/23 00:39:53;;;;;;;1.50;1.35;;;14.50;99.90;;;;;;5006427;28;20046;-78
2022/05/23 00:45:11;;;;;;;5.03;1.98;;;14.50;99.90;;;;;;5004604;28;20058;-79
2022/05/23 00:47:37;;;;;;;1.50;1.38;;;14.50;99.90;;;;;;4989849;28;20058;-79
2022/05/23 00:50:03;;;;;;;4.15;1.50;;;14.50;99.90;;;;;;4997127;28;20042;-79
2022/05/23 00:52:55;;;;;;;1.42;1.33;;;14.50;99.90;;;;;;5006195;28;20042;-79
2022/05/23 00:55:26;;;;;;;;;;;14.50;99.90;;;;;;5004673;28;20050;-79
2022/05/23 00:57:58;;;;;;;2.10;0.88;;;14.50;99.90;;;;;;5005046;28;19921;-79
2022/05/23 01:00:23;;;;;;;1.52;1.42;;;14.50;99.90;;;;;;5005658;28;20061;-79
2022/05/23 01:02:56;;;;;;;1.27;1.10;;;14.50;99.90;;;;;;5005350;28;20808;-79
2022/05/23 01:05:23;;;;;;;1.50;1.40;;;14.50;99.90;;;;;;4988496;28;20049;-79
2022/05/23 01:07:48;;;;;;;3.13;2.03;;;14.50;99.90;;;;;;5005908;28;20042;-79
2022/05/23 01:10:14;;;;;;;1.55;1.45;;;14.50;99.90;;;;;;5005506;28;20053;-79
2022/05/23 01:12:41;;;;;;;1.10;1.05;;;14.50;99.90;;;;;;5005602;28;20978;-79
2022/05/23 01:15:28;;;;;;;1.10;1.00;;;14.50;99.90;;;;;;5005627;28;20542;-79
2022/05/23 01:17:54;;;;;;;1.23;1.13;;;14.50;99.90;;;;;;5004962;28;20077;-79
2022/05/23 01:20:21;;;;;;;1.42;1.20;;;14.50;99.90;;;;;;5005511;28;20064;-79
2022/05/23 01:23:07;;;;;;;5.25;1.58;;;14.40;99.90;;;;;;5005789;28;20048;-79
2022/05/23 01:25:39;;;;;;;1.65;1.33;;;14.50;99.90;;;;;;5004116;28;20129;-78
2022/05/23 01:28:05;;;;;;;;;;;14.40;99.90;;;;;;5005709;28;20416;-79
2022/05/23 01:30:39;;;;;;;1.25;0.98;;;14.50;99.90;;;;;;5004221;28;19921;-79
2022/05/23 01:33:04;;;;;;;2.60;2.05;;;14.50;99.90;;;;;;5004636;28;20070;-79
2022/05/23 01:35:30;;;;;;;1.00;1.00;;;14.50;99.90;;;;;;5004106;28;20074;-79
2022/05/23 01:37:57;;;;;;;1.30;1.00;;;14.40;99.90;;;;;;5004219;28;20054;-79
2022/05/23 01:40:23;;;;;;;2.42;1.50;;;14.50;99.90;;;;;;5003729;28;20037;-79
2022/05/23 01:42:49;;;;;;;1.98;1.30;;;14.50;99.90;;;;;;5003975;28;20487;-78
2022/05/23 01:45:20;;;;;;;1.50;1.35;;;14.40;99.90;;;;;;5004830;28;20034;-79
2022/05/23 01:47:45;;;;;;;1.85;1.55;;;14.50;99.90;;;;;;4986123;28;20103;-78
2022/05/23 01:50:12;;;;;;;0.82;0.82;;;14.50;99.90;;;;;;4985640;28;20489;-79
2022/05/23 01:52:38;;;;;;;3.13;1.70;;;14.50;99.90;;;;;;4985341;28;20189;-79
2022/05/23 01:55:04;;;;;;;3.78;1.48;;;14.50;99.90;;;;;;4985008;28;20081;-79
2022/05/23 01:57:31;;;;;;;5.30;1.00;;;14.50;99.90;;;;;;4984540;28;20057;-79
2022/05/23 02:02:44;;;;;;;2.10;1.48;;;14.50;99.90;;;;;;4983368;28;20420;-79
2022/05/23 02:05:10;;;;;;;1.10;1.10;;;14.50;99.90;;;;;;4983731;28;20060;-79
2022/05/23 02:07:36;;;;;;;1.33;1.23;;;14.50;99.90;;;;;;4999355;28;20060;-79
2022/05/23 02:10:02;;;;;;;1.92;1.58;;;14.50;99.90;;;;;;5004204;28;20033;-79
2022/05/23 02:12:28;;;;;;;1.30;1.30;;;14.50;99.90;;;;;;5003560;28;20134;-79
2022/05/23 02:14:53;;;;;;;1.45;1.23;;;14.40;99.90;;;;;;5005013;28;20491;-79
2022/05/23 02:17:19;;;;;;;1.33;1.23;;;14.40;99.90;;;;;;5003719;28;20130;-79
2022/05/23 02:19:45;;;;;;;0.73;0.73;;;14.40;99.90;;;;;;5004688;28;20088;-79
2022/05/23 02:22:10;;;;;;;1.95;1.40;;;14.40;99.90;;;;;;5002950;28;20048;-79
2022/05/23 02:24:39;;;;;;;5.25;1.85;;;14.40;99.90;;;;;;5004680;28;20053;-79
2022/05/23 02:27:05;;;;;;;1.73;1.27;;;14.40;99.90;;;;;;5003594;28;20132;-79
2022/05/23 02:29:30;;;;;;;1.85;0.95;;;14.40;99.90;;;;;;5004349;28;20042;-79
2022/05/23 02:31:56;;;;;;;3.80;1.05;;;14.40;99.90;;;;;;5003328;28;20046;-79
2022/05/23 02:34:22;;;;;;;5.13;1.50;;;14.30;99.90;;;;;;5003129;28;20084;-79
2022/05/23 02:36:48;;;;;;;1.75;1.33;;;14.30;99.90;;;;;;5002976;28;20088;-79
2022/05/23 02:39:14;;;;;;;1.67;1.58;;;14.30;99.90;;;;;;5004041;28;20041;-79
2022/05/23 02:41:40;;;;;;;1.95;1.20;;;14.30;99.90;;;;;;5003971;28;20046;-79
2022/05/23 02:44:06;;;;;;;2.25;1.55;;;14.30;99.90;;;;;;5002653;28;20069;-79
2022/05/23 02:46:32;;;;;;;1.98;1.88;;;14.30;99.90;;;;;;4995864;28;20049;-79
2022/05/23 02:48:58;;;;;;;7.07;1.98;;;14.20;99.90;;;;;;4983263;28;20051;-79
2022/05/23 02:51:24;;;;;;;4.32;1.33;;;14.20;99.90;;;;;;4982899;28;20046;-79
2022/05/23 02:53:50;;;;;;;2.53;1.48;;;14.20;99.90;;;;;;4983079;28;20081;-79
2022/05/23 02:56:17;;;;;;;2.05;1.20;;;14.20;99.90;;;;;;4984234;28;20053;-79
2022/05/23 02:58:42;;;;;;;1.30;1.20;;;14.20;99.90;;;;;;4983342;28;20122;-79
2022/05/23 03:01:09;;;;;;;1.17;0.90;;;14.10;99.90;;;;;;4982789;28;20062;-79
2022/05/23 03:03:35;;;;;;;3.03;1.92;;;14.10;99.90;;;;;;4982272;28;20051;-79
2022/05/23 03:06:01;;;;;;;2.08;1.45;;;14.10;99.90;;;;;;4984530;28;20448;-79
2022/05/23 03:08:28;;;;;;;1.63;1.40;;;14.10;99.90;;;;;;4984369;28;20066;-79
2022/05/23 03:10:58;;;;;;;1.92;1.83;;;14.10;99.90;;;;;;4966435;28;20042;-79
2022/05/23 03:13:24;;;;;;;2.78;1.88;;;14.10;99.90;;;;;;4982228;28;20087;-79
2022/05/23 03:15:50;;;;;;;1.25;1.15;;;14.10;99.90;;;;;;4983173;28;20050;-78
2022/05/23 03:18:16;;;;;;;1.70;1.60;;;14.10;99.90;;;;;;4982793;28;20050;-78
2022/05/23 03:20:42;;;;;;;2.17;1.98;;;14.00;99.90;;;;;;4982472;28;20149;-78
2022/05/23 03:28:36;;;;;;;1.60;1.17;;;13.90;99.90;;;;;;4982591;28;20059;-78
2022/05/23 03:31:03;;;;;;;3.47;1.63;;;13.90;99.90;;;;;;4983594;28;20659;-78
2022/05/23 03:33:30;;;;;;;2.25;1.50;;;13.90;99.90;;;;;;4986637;28;20041;-79
2022/05/23 03:35:55;;;;;;;1.73;1.63;;;13.90;99.90;;;;;;5003891;28;20072;-79
2022/05/23 03:38:22;;;;;;;2.00;1.52;;;13.90;99.90;;;;;;5003139;28;20597;-78
2022/05/23 03:40:48;;;;;;;3.63;1.48;;;13.80;99.90;;;;;;5003383;28;20056;-78
2022/05/23 03:43:14;;;;;;;1.48;1.38;;;13.80;99.90;;;;;;5001206;28;20034;-78
2022/05/23 03:45:40;;;;;;;2.30;1.60;;;13.80;99.90;;;;;;5001988;28;20096;-78
2022/05/23 03:48:06;;;;;;;2.42;1.63;;;13.80;99.90;;;;;;4965267;28;20397;-78
2022/05/23 03:50:33;;;;;;;2.30;1.70;;;13.80;99.90;;;;;;4982696;28;20138;-79
2022/05/23 03:53:00;;;;;;;1.95;1.38;;;13.80;99.90;;;;;;4983126;28;20136;-78
2022/05/23 03:55:26;;;;;;;1.50;1.40;;;13.80;99.90;;;;;;4984077;28;20057;-78
2022/05/23 03:57:51;;;;;;;1.98;1.80;;;13.70;99.90;;;;;;4999201;28;20046;-78
2022/05/23 04:00:18;;;;;;;9.48;1.95;;;13.70;99.90;;;;;;5006328;28;20048;-79
2022/05/23 04:02:44;;;;;;;3.22;1.10;;;13.70;99.90;;;;;;5006018;28;20112;-78
2022/05/23 04:05:12;;;;;;;1.42;1.33;;;13.70;99.90;;;;;;5006715;28;20042;-78
2022/05/23 04:07:38;;;;;;;2.20;2.05;;;13.70;99.90;;;;;;5006924;28;20279;-78
2022/05/23 04:10:11;;;;;;;2.65;1.60;;;13.70;99.90;;;;;;5006719;28;20046;-78
2022/05/23 04:12:37;;;;;;;1.70;1.60;;;13.70;99.90;;;;;;4988991;28;20118;-78
2022/05/23 04:15:07;;;;;;;1.77;1.38;;;13.60;99.90;;;;;;5006443;28;20560;-78
2022/05/23 04:17:33;;;;;;;2.90;1.45;;;13.60;99.90;;;;;;5004822;28;20046;-78
2022/05/23 04:19:58;;;;;;;1.55;1.45;;;13.60;99.90;;;;;;5006764;28;20448;-78
2022/05/23 04:22:24;;;;;;;2.03;1.88;;;13.60;99.90;;;;;;5006199;28;20068;-78
2022/05/23 04:24:50;;;;;;;2.38;1.75;;;13.60;99.90;;;;;;5005282;28;20739;-78
2022/05/23 04:27:15;;;;;;;2.78;1.73;;;13.60;99.90;;;;;;4988406;28;20103;-79
2022/05/23 04:29:41;;;;;;;1.70;1.60;;;13.60;99.90;;;;;;5006204;28;20042;-78
2022/05/23 04:35:12;;;;;;;2.13;1.38;;;13.60;99.90;;;;;;5005054;28;20484;-78
2022/05/23 04:37:37;;;;;;;2.53;1.70;;;13.60;99.90;;;;;;4998565;28;20043;-79
2022/05/23 04:40:03;;;;;;;10.30;1.98;;;13.60;99.90;;;;;;4984953;28;20188;-78
2022/05/23 04:42:28;;;;;;;2.92;1.75;;;13.60;99.90;;;;;;5004520;28;20480;-78
2022/05/23 04:44:54;;;;;;;6.03;1.80;;;13.60;99.90;;;;;;5006520;28;20038;-78
2022/05/23 04:50:04;;;;;;;2.05;1.83;;;13.60;99.90;;;;;;4985235;28;20105;-78
2022/05/23 04:52:30;;;;;;;3.83;2.08;;;13.70;99.90;;;;;;4986715;28;20065;-78
2022/05/23 04:54:55;;;;;;;4.65;2.20;;;13.70;99.90;;;;;;4986308;28;20038;-78
2022/05/23 04:57:21;;;;;;;2.83;2.22;;;13.70;99.90;;;;;;4998713;28;20145;-78
2022/05/23 04:59:47;;;;;;;6.28;1.55;;;13.70;99.90;;;;;;5005592;28;20053;-78
2022/05/23 05:02:13;;;;;;;4.40;2.55;;;13.70;99.90;;;;;;4987127;28;20050;-78
2022/05/23 05:04:39;;;;;;;2.40;2.20;;;13.70;99.90;;;;;;5005667;28;20128;-78
2022/05/23 05:07:05;;;;;;;2.13;1.90;;;13.70;99.90;;;;;;5005497;28;20500;-79
2022/05/23 05:09:31;;;;;;;2.90;1.80;;;13.70;99.90;;;;;;5004667;28;20104;-78
2022/05/23 05:11:56;;;;;;;2.60;2.17;;;13.70;99.90;;;;;;5005320;28;20057;-78
2022/05/23 05:14:22;;;;;;;1.38;1.27;;;13.70;99.90;;;;;;5004960;28;20050;-78
2022/05/23 05:16:48;;;;;;;2.60;1.92;;;13.70;99.90;;;;;;5003400;28;20046;-78
2022/05/23 05:19:14;;;;;;;5.45;2.88;;;13.70;99.90;;;;;;5000394;28;20536;-78
2022/05/23 05:21:39;;;;;;;2.85;2.03;;;13.70;99.90;;;;;;4987338;28;20042;-78
2022/05/23 05:24:05;;;;;;;1.73;1.63;;;13.70;99.90;;;;;;4988808;28;20073;-78
2022/05/23 05:26:31;;;;;;;2.15;1.95;;;13.70;99.90;;;;;;5003892;28;20053;-78
2022/05/23 05:28:56;;;;;;;1.73;1.63;;;13.80;99.90;;;;;;5005442;28;20073;-76
2022/05/23 05:31:27;;;;;;;2.40;2.17;;;13.70;99.90;;;;;;5004250;28;20077;-78
2022/05/23 05:33:59;;;;;;;3.63;2.30;;;13.80;99.90;;;;;;5003809;28;20034;-78
2022/05/23 05:36:32;;;;;;;2.90;2.65;;;13.70;99.90;;;;;;5003012;28;20451;-78
2022/05/23 05:39:02;;;;;;;1.92;1.83;;;13.80;99.90;;;;;;5000169;28;20048;-80
2022/05/23 05:41:34;;;;;;;4.07;2.42;;;13.80;99.90;;;;;;5000083;28;20092;-81
2022/05/23 05:44:05;;;;;;;5.07;2.58;;;13.80;99.90;;;;;;4996808;28;20046;-80
2022/05/23 05:46:36;;;;;;;3.70;1.92;;;13.80;99.90;;;;;;4980763;28;20361;-80
2022/05/23 05:49:06;;;;;;;2.58;2.33;;;13.80;99.90;;;;;;4998073;28;20048;-80
2022/05/23 05:51:34;;;;;;;9.10;2.85;;;13.90;99.90;;;;;;5003526;28;20038;-79
2022/05/23 05:54:00;;;;;;;2.40;1.92;;;13.90;99.90;;;;;;5003747;28;20034;-80
2022/05/23 05:56:26;;;;;;;2.92;2.60;;;13.90;99.90;;;;;;4969909;28;20100;-79
2022/05/23 05:58:51;;;;;;;4.20;2.55;;;13.90;99.90;;;;;;4996104;28;20038;-79
2022/05/23 06:01:17;;;;;;;2.78;2.08;;;14.00;99.90;;;;;;4991991;28;20042;-79
2022/05/23 06:03:42;;;;;;;3.55;1.98;;;14.00;99.90;;;;;;4990110;28;20054;-80
2022/05/23 06:11:36;;;;;;;2.58;1.98;;;14.10;99.90;;;;;;4997421;28;20065;-79
2022/05/23 06:14:04;;;;;;;2.75;2.38;;;14.10;99.90;;;;;;5004123;28;20452;-81
2022/05/23 06:16:33;;;;;;;2.35;2.15;;;14.20;99.90;;;;;;4987939;28;20050;-79
2022/05/23 06:18:59;;;;;;;3.03;2.35;;;14.20;99.90;;;;;;4986333;28;20038;-79
2022/05/23 06:21:26;;;;;;;4.13;2.00;;;14.30;99.90;;;;;;4990762;28;20136;-79
2022/05/23 06:23:52;;;;;;;2.72;2.47;;;14.30;99.90;;;;;;4994392;28;20042;-79
2022/05/23 06:26:23;;;;;;;3.35;3.05;;;14.40;99.90;;;;;;4988753;28;20046;-80
2022/05/23 06:28:50;;;;;;;3.70;2.65;;;14.40;99.90;;;;;;4990197;28;20291;-80
2022/05/23 06:31:17;;;;;;;7.25;3.03;;;14.50;99.90;;;;;;4990921;28;20045;-79
2022/05/23 06:33:43;;;;;;;6.07;2.40;;;14.50;99.90;;;;;;4999336;28;20076;-79
2022/05/23 06:36:09;;;;;;;2.80;2.50;;;14.50;99.90;;;;;;5001089;28;20492;-79
2022/05/23 06:38:37;;;;;;;2.35;1.80;;;14.60;99.90;;;;;;4996477;28;20038;-79
2022/05/23 06:41:04;;;;;;;2.97;2.63;;;14.60;99.90;;;;;;4993924;28;20045;-80
2022/05/23 06:43:30;;;;;;;2.80;2.60;;;14.60;99.90;;;;;;4988944;28;20321;-80
2022/05/23 06:45:56;;;;;;;8.27;2.35;;;14.70;99.90;;;;;;4985240;28;20046;-83
2022/05/23 06:48:23;;;;;;;3.03;2.75;;;14.70;99.90;;;;;;5006784;28;20096;-86
2022/05/23 06:50:50;;;;;;;4.35;2.65;;;14.70;99.90;;;;;;5022061;28;20095;-92
2022/05/23 06:53:19;;;;;;;4.30;2.83;;;14.80;99.90;;;;;;5002048;28;20475;-85
2022/05/23 06:55:45;;;;;;;5.47;3.17;;;14.80;99.90;;;;;;4994507;28;20041;-88
2022/05/23 06:58:11;;;;;;;4.70;2.90;;;14.80;99.90;;;;;;4985583;28;20556;-88
2022/05/23 07:00:40;;;;;;;3.53;2.72;;;14.90;99.90;;;;;;4998504;28;20054;-88
2022/05/23 07:03:05;;;;;;;5.20;3.00;;;14.90;99.90;;;;;;4992669;28;20046;-84
2022/05/23 07:13:45;;;;;;;2.17;2.08;;;15.20;99.90;;;;;;4998089;28;20417;-81
2022/05/23 07:16:11;;;;;;;3.92;2.78;;;15.20;99.90;;;;;;5000232;28;20049;-80
2022/05/23 07:18:38;;;;;;;3.05;2.75;;;15.30;99.90;;;;;;4999152;28;20127;-80
2022/05/23 07:21:07;;;;;;;2.92;2.22;;;15.30;99.90;;;;;;5002111;28;20048;-81
2022/05/23 07:23:36;;;;;;;5.93;2.67;;;15.40;99.90;;;;;;5000757;28;20048;-81
2022/05/23 07:26:07;;;;;;;3.17;2.70;;;15.40;99.90;;;;;;4992254;28;20345;-87
2022/05/23 07:28:32;;;;;;;2.45;2.25;;;15.50;99.90;;;;;;5001359;28;20038;-81
2022/05/23 07:30:58;;;;;;;2.72;2.50;;;15.60;99.90;;;;;;4983486;28;20398;-80
2022/05/23 07:33:24;;;;;;;4.45;2.85;;;15.70;99.90;;;;;;4980007;28;20045;-80
2022/05/23 07:35:54;;;;;;;5.32;3.15;;;15.80;99.90;;;;;;4981327;28;20502;-80
2022/05/23 07:38:20;;;;;;;3.38;2.17;;;15.80;99.90;;;;;;4981440;28;20837;-81
2022/05/23 07:40:50;;;;;;;3.60;2.97;;;15.90;99.90;;;;;;4981783;28;20424;-80
2022/05/23 07:43:16;;;;;;;3.10;2.83;;;16.00;99.90;;;;;;4982579;28;20061;-80
2022/05/23 07:45:41;;;;;;;5.95;2.72;;;16.00;99.90;;;;;;4965508;28;20047;-80
2022/05/23 07:48:07;;;;;;;3.53;2.85;;;16.00;99.90;;;;;;4999276;28;20048;-80
2022/05/23 07:50:33;;;;;;;3.17;2.88;;;16.10;99.90;;;;;;4984936;28;20042;-80
2022/05/23 08:01:11;;;;;;;7.93;2.10;;;16.30;99.90;;;;;;4993243;28;20068;-87
2022/05/23 08:03:37;;;;;;;3.40;2.50;;;16.30;99.90;;;;;;5001724;28;20481;-82
2022/05/23 08:06:03;;;;;;;3.38;2.80;;;16.30;99.90;;;;;;5004230;28;20038;-82
2022/05/23 08:08:28;;;;;;;3.95;2.00;;;16.40;99.90;;;;;;5001510;28;20073;-80
2022/05/23 08:10:54;;;;;;;6.78;3.10;;;16.50;99.90;;;;;;4986551;28;20042;-83
2022/05/23 08:13:19;;;;;;;5.75;2.72;;;16.50;99.90;;;;;;4981328;28;20451;-82
2022/05/23 08:15:45;;;;;;;2.80;2.22;;;16.60;99.90;;;;;;4995339;28;20042;-88
2022/05/23 08:18:11;;;;;;;5.85;2.83;;;16.60;99.90;;;;;;4998887;28;20053;-93
2022/05/23 08:20:38;;;;;;;2.95;2.72;;;16.60;99.90;;;;;;4992996;28;20046;-89
2022/05/23 08:23:04;;;;;;;3.53;2.72;;;16.60;99.90;;;;;;4980888;28;20339;-85
2022/05/23 08:25:30;;;;;;;4.78;2.53;;;16.70;99.90;;;;;;5000839;28;20500;-89
2022/05/23 08:27:56;;;;;;;2.90;2.67;;;16.70;99.90;;;;;;5001025;28;20042;-81
2022/05/23 08:30:22;;;;;;;6.90;2.72;;;16.70;99.90;;;;;;5001594;28;20095;-89
2022/05/23 08:32:47;;;;;;;3.03;2.47;;;16.70;99.90;;;;;;5000331;28;20128;-89
2022/05/23 08:35:14;;;;;;;4.90;3.42;;;16.70;99.90;;;;;;4984516;28;20046;-85
2022/05/23 08:37:39;;;;;;;4.93;3.00;;;16.70;99.90;;;;;;4985104;28;20050;-86
2022/05/23 08:40:07;;;;;;;3.53;2.67;;;16.80;99.90;;;;;;4984475;28;20053;-87
2022/05/23 08:42:56;;;;;;;3.30;3.03;;;16.80;99.90;;;;;;5001391;28;20042;-89
2022/05/23 08:45:31;;;;;;;2.60;2.42;;;16.90;99.90;;;;;;5000900;28;20351;-89
2022/05/23 08:48:27;;;;;;;4.95;3.03;;;17.00;99.90;;;;;;4994920;28;20053;-81
2022/05/23 08:51:07;;;;;;;2.92;2.15;;;17.00;99.90;;;;;;5005679;28;20050;-81
2022/05/23 08:53:53;;;;;;;5.65;3.05;;;17.10;99.90;;;;;;5005304;28;20254;-80
2022/05/23 08:56:36;;;;;;;4.15;2.65;;;17.10;99.90;;;;;;4998684;28;20070;-81
2022/05/23 08:59:05;;;;;;;3.45;2.60;;;17.20;99.90;;;;;;4992311;28;20041;-81
2022/05/23 09:01:59;;;;;;;2.78;2.55;;;17.20;99.90;;;;;;4995074;28;20073;-80
2022/05/23 09:04:47;;;;;;;6.68;2.40;;;17.30;99.90;;;;;;5003724;28;20054;-82
2022/05/23 09:07:42;;;;;;;12.65;3.05;;;17.30;99.90;;;;;;5003961;28;20042;-81
2022/05/23 09:10:13;;;;;;;6.45;3.38;;;17.40;99.90;;;;;;4996909;28;20072;-82
2022/05/23 09:12:39;;;;;;;3.83;2.78;;;17.50;99.90;;;;;;5005062;28;20058;-81
2022/05/23 09:15:06;;;;;;;4.53;2.63;;;17.50;99.90;;;;;;5004887;28;20050;-81
2022/05/23 09:17:37;;;;;;;3.47;3.17;;;17.50;99.90;;;;;;5003360;28;20116;-81
2022/05/23 09:20:16;;;;;;;5.18;2.30;;;17.60;99.90;;;;;;5004748;28;20046;-82
2022/05/23 09:22:50;;;;;;;4.57;3.22;;;17.60;99.90;;;;;;5005162;28;20549;-82
2022/05/23 09:25:25;;;;;;;3.15;2.85;;;17.60;99.90;;;;;;5004826;28;20125;-81
2022/05/23 09:28:05;;;;;;;5.55;3.38;;;17.70;99.90;;;;;;5003721;28;20639;-82
2022/05/23 09:30:30;;;;;;;4.43;3.03;;;17.70;99.90;;;;;;4987307;28;20053;-82
2022/05/23 09:33:08;;;;;;;4.30;2.33;;;17.70;99.90;;;;;;5002947;28;20030;-82
2022/05/23 09:35:52;;;;;;;6.38;3.03;;;17.80;99.90;;;;;;5003604;28;20334;-83
2022/05/23 09:38:25;;;;;;;3.08;2.42;;;17.80;99.90;;;;;;5004537;28;20124;-82
2022/05/23 09:40:52;;;;;;;3.90;2.60;;;17.80;99.90;;;;;;5004936;28;20083;-86
2022/05/23 09:49:09;;;;;;;9.52;3.28;;;18.00;99.90;;;;;;4979282;28;20057;-82
2022/05/23 09:51:54;;;;;;;4.70;3.75;;;18.00;99.90;;;;;;5003541;28;20056;-82
2022/05/23 09:54:26;;;;;;;3.45;3.08;;;18.10;99.90;;;;;;5003479;28;20077;-81
2022/05/23 09:56:53;;;;;;;3.70;2.20;;;18.20;99.90;;;;;;5004807;28;20049;-81
2022/05/23 09:59:27;;;;;;;4.15;3.70;;;18.30;99.90;;;;;;5004698;28;20053;-81
2022/05/23 10:01:53;;;;;;;7.57;3.20;;;18.30;99.90;;;;;;5003037;28;20041;-82
2022/05/23 10:04:28;;;;;;;4.30;3.05;;;18.40;99.90;;;;;;5004505;28;20052;-81
2022/05/23 10:06:54;;;;;;;3.20;2.38;;;18.50;99.90;;;;;;5004972;28;20091;-81
2022/05/23 10:09:31;;;;;;;2.70;2.50;;;18.60;99.90;;;;;;5002958;28;20049;-81
2022/05/23 10:12:04;;;;;;;3.53;2.65;;;18.70;99.90;;;;;;5003922;28;20137;-81
2022/05/23 10:14:54;;;;;;;12.25;2.97;;;18.70;99.90;;;;;;4998094;28;20146;-82
2022/05/23 10:17:34;;;;;;;3.90;2.85;;;18.70;99.90;;;;;;4993780;28;20068;-91
2022/05/23 10:20:41;;;;;;;3.72;2.97;;;18.80;99.90;;;;;;4976517;28;20100;-82
2022/05/23 10:23:22;;;;;;;3.85;2.78;;;18.90;99.90;;;;;;4934957;28;20096;-92
2022/05/23 10:26:15;;;;;;;3.60;2.95;;;19.00;99.90;;;;;;4988734;28;20054;-83
2022/05/23 10:29:18;;;;;;;3.00;2.40;;;19.00;99.90;;;;;;4992768;28;20537;-82
2022/05/23 10:32:03;;;;;;;3.33;2.53;;;19.10;99.90;;;;;;4993219;28;20038;-81
2022/05/23 10:34:51;;;;;;;3.88;3.00;;;19.20;99.90;;;;;;4990335;28;20129;-82
2022/05/23 10:37:23;;;;;;;4.10;2.95;;;19.20;99.90;;;;;;5002494;28;20041;-81
2022/05/23 10:42:40;;;;;;;2.75;2.55;;;19.30;99.90;;;;;;5004620;28;19928;-83
2022/05/23 10:45:31;;;;;;;3.05;2.30;;;19.50;99.90;;;;;;5003613;28;20049;-83
2022/05/23 10:48:11;;;;;;;9.95;2.95;;;19.60;99.90;;;;;;4987731;28;20045;-84
2022/05/23 10:50:58;;;;;;;7.40;3.03;;;19.60;99.90;;;;;;4993303;28;20518;-84
2022/05/23 10:53:37;;;;;;;3.50;2.78;;;19.60;99.90;;;;;;4989597;28;20052;-85
2022/05/23 10:56:28;;;;;;;2.60;2.00;;;19.70;99.90;;;;;;4991575;28;20061;-85
2022/05/23 10:59:09;;;;;;;3.22;2.17;;;19.70;99.90;;;;;;4993213;28;20679;-84
2022/05/23 11:01:53;;;;;;;6.88;2.83;;;19.70;99.90;;;;;;4992438;28;20125;-85
2022/05/23 11:04:18;;;;;;;2.60;2.20;;;19.80;99.90;;;;;;4991176;28;20090;-85
2022/05/23 11:06:59;;;;;;;3.95;2.53;;;19.80;99.90;;;;;;4992685;28;20598;-83
2022/05/23 11:09:53;;;;;;;4.32;2.30;;;19.90;99.90;;;;;;4991998;28;20133;-84
2022/05/23 11:12:35;;;;;;;2.13;1.92;;;20.00;99.90;;;;;;4994670;28;20058;-84
2022/05/23 11:15:18;;;;;;;;;;;20.00;99.90;;;;;;4992495;28;20049;-80
2022/05/23 11:18:25;;;;;;;2.78;2.28;;;20.10;99.90;;;;;;4971496;28;19945;-82
2022/05/23 11:20:56;;;;;;;1.60;1.23;;;20.30;99.90;;;;;;4989933;28;21066;-82
2022/05/23 11:23:48;;;;;;;2.20;2.00;;;20.40;99.90;;;;;;4990575;28;20046;-91
2022/05/23 11:26:37;;;;;;;2.50;1.70;;;20.50;99.90;;;;;;4992487;28;20105;-80
2022/05/23 11:35:21;;;;;;;2.83;2.35;;;20.60;99.90;;;;;;4988558;28;20125;-81
2022/05/23 11:37:49;;;;;;;5.00;2.05;;;20.60;99.90;;;;;;5002339;28;20116;-81
2022/05/23 11:40:30;;;;;;;1.15;1.10;;;20.60;99.90;;;;;;5003341;28;20124;-81
2022/05/23 11:43:02;;;;;;;1.70;1.52;;;20.60;99.90;;;;;;5002713;28;20057;-80
2022/05/23 11:48:35;;;;;;;1.60;1.33;;;20.60;99.90;;;;;;4990460;28;20170;-83
2022/05/23 11:51:25;;;;;;;1.83;1.55;;;20.60;99.90;;;;;;4991775;28;20497;-82
2022/05/23 11:54:00;;;;;;;6.15;2.35;;;20.70;99.90;;;;;;4994401;28;20053;-82
2022/05/23 11:57:07;;;;;;;3.53;1.67;;;20.60;99.90;;;;;;4992079;28;20146;-80
2022/05/23 11:59:35;;;;;;;5.13;1.45;;;20.60;99.90;;;;;;4963905;28;20058;-84
2022/05/23 12:02:07;;;;;;;1.40;1.33;;;20.60;99.90;;;;;;4993774;28;20387;-82
2022/05/23 12:04:52;;;;;;;2.28;1.80;;;20.70;99.90;;;;;;4981883;28;20443;-81
2022/05/23 12:07:37;;;;;;;2.08;1.88;;;20.80;99.90;;;;;;5001339;28;20052;-81
2022/05/23 12:10:21;;;;;;;1.60;1.50;;;20.80;99.90;;;;;;5002775;28;20104;-81
2022/05/23 12:12:49;;;;;;;4.22;2.55;;;20.70;99.90;;;;;;4997455;28;20061;-81
2022/05/23 12:15:43;;;;;;;1.58;1.48;;;20.70;99.90;;;;;;4996727;28;20116;-81
2022/05/23 12:18:37;;;;;;;1.50;1.15;;;20.70;99.90;;;;;;4989994;28;20103;-84
2022/05/23 12:21:06;;;;;;;3.55;1.38;;;20.70;99.90;;;;;;4995507;28;20038;-81
2022/05/23 12:23:38;;;;;;;3.13;1.15;;;20.70;99.90;;;;;;4996447;28;20046;-78
2022/05/23 12:26:10;;;;;;;1.60;1.40;;;20.80;99.90;;;;;;4994093;28;20057;-78
2022/05/23 12:28:59;;;;;;;2.63;1.35;;;20.90;99.90;;;;;;4998082;28;20046;-78
2022/05/23 12:31:30;;;;;;;1.40;1.30;;;21.00;99.90;;;;;;4992361;28;20065;-82
2022/05/23 12:34:02;;;;;;;1.33;1.10;;;21.10;99.90;;;;;;4979535;28;20447;-78
2022/05/23 12:36:31;;;;;;;2.08;1.50;;;21.10;99.90;;;;;;4994548;28;20815;-78
2022/05/23 12:39:32;;;;;;;1.80;1.40;;;21.10;99.90;;;;;;4995237;28;20503;-79
2022/05/23 12:42:01;;;;;;;1.10;1.10;;;21.10;99.90;;;;;;4995281;28;20054;-77
2022/05/23 12:44:52;;;;;;;3.10;1.45;;;21.10;99.90;;;;;;4994127;28;20047;-79
2022/05/23 12:47:36;;;;;;;1.65;1.42;;;21.20;99.90;;;;;;4993010;28;20050;-79
2022/05/23 12:50:11;;;;;;;3.47;1.63;;;21.20;99.90;;;;;;4992811;28;20050;-79
2022/05/23 12:53:10;;;;;;;1.45;1.35;;;21.30;99.90;;;;;;4996792;28;20049;-79
2022/05/23 12:55:57;;;;;;;1.08;1.08;;;21.30;99.90;;;;;;4978686;28;20053;-79
2022/05/23 12:58:32;;;;;;;1.52;1.15;;;21.30;99.90;;;;;;4993750;28;20112;-79
2022/05/23 13:01:07;;;;;;;2.10;1.95;;;21.20;99.90;;;;;;4994286;28;20046;-80
2022/05/23 13:04:07;;;;;;;2.25;1.38;;;21.20;99.90;;;;;;4994256;28;20048;-78
2022/05/23 13:06:40;;;;;;;1.73;1.63;;;21.20;99.90;;;;;;4994634;28;20053;-79
2022/05/23 13:09:11;;;;;;;1.50;1.40;;;21.10;99.90;;;;;;4977348;28;20334;-79
2022/05/23 13:11:44;;;;;;;1.13;1.10;;;21.10;99.90;;;;;;4991661;28;20058;-79
2022/05/23 13:14:10;;;;;;;1.85;1.75;;;21.00;99.90;;;;;;4994213;28;20477;-79
2022/05/23 13:16:38;;;;;;;6.63;1.92;;;21.00;99.90;;;;;;4994721;28;20046;-78
2022/05/23 13:22:05;;;;;;;2.03;1.75;;;21.00;99.90;;;;;;4994488;28;20102;-82
2022/05/23 13:24:49;;;;;;;2.38;1.73;;;20.90;99.90;;;;;;4993394;28;20049;-82
2022/05/23 13:27:48;;;;;;;2.70;1.95;;;20.90;99.90;;;;;;4998749;28;20108;-81
2022/05/23 13:30:17;;;;;;;2.83;1.88;;;20.90;99.90;;;;;;4990962;28;20065;-82
2022/05/23 13:32:59;;;;;;;1.60;1.50;;;20.80;99.90;;;;;;4991324;28;20042;-80
2022/05/23 13:35:25;;;;;;;1.20;1.10;;;20.80;99.90;;;;;;5002584;28;20057;-80
2022/05/23 13:37:51;;;;;;;4.10;1.73;;;20.80;99.90;;;;;;5005121;28;20049;-79
2022/05/23 13:40:24;;;;;;;3.03;1.80;;;20.70;99.90;;;;;;5003889;28;20157;-79
2022/05/23 13:42:50;;;;;;;3.92;1.85;;;20.70;99.90;;;;;;4988499;28;20125;-79
2022/05/23 13:45:24;;;;;;;2.17;1.88;;;20.70;99.90;;;;;;5003102;28;20120;-77
2022/05/23 13:47:58;;;;;;;1.52;1.27;;;20.70;99.90;;;;;;4987885;28;20584;-79
2022/05/23 13:50:30;;;;;;;1.58;1.48;;;20.60;99.90;;;;;;4988207;28;20052;-79
2022/05/23 13:53:27;;;;;;;2.40;2.20;;;20.70;99.90;;;;;;5004071;28;20108;-79
2022/05/23 13:55:53;;;;;;;1.60;1.50;;;20.60;99.90;;;;;;5004731;28;20050;-79
2022/05/23 13:58:28;;;;;;;6.32;1.70;;;20.60;99.90;;;;;;4986961;28;20126;-79
2022/05/23 14:00:55;;;;;;;1.55;1.45;;;20.60;99.90;;;;;;4996341;28;20049;-83
2022/05/23 14:03:35;;;;;;;1.25;1.20;;;20.60;99.90;;;;;;4998797;28;20137;-82
2022/05/23 14:06:04;;;;;;;1.55;1.40;;;20.60;99.90;;;;;;4992459;28;20125;-83
2022/05/23 14:08:39;;;;;;;2.00;1.73;;;20.60;99.90;;;;;;4993833;28;20046;-79
2022/05/23 14:11:18;;;;;;;2.88;1.67;;;20.60;99.90;;;;;;4992670;28;20058;-82
2022/05/23 14:13:45;;;;;;;2.17;1.80;;;20.60;99.90;;;;;;4975393;28;20192;-84